sensor_id;sensor_type;location;lat;lon;timestamp;temperature;humidity
67759;SHT31;54562;47.620;18.786;2022-11-10T00:01:15;9.65;95.38
67759;SHT31;54562;47.620;18.786;2022-11-10T00:04:31;9.66;95.38
67759;SHT31;54562;47.620;18.786;2022-11-10T00:07:40;9.67;95.38
67759;SHT31;54562;47.620;18.786;2022-11-10T00:10:56;9.69;95.33
67759;SHT31;54562;47.620;18.786;2022-11-10T00:14:17;9.69;95.32
67759;SHT31;54562;47.620;18.786;2022-11-10T00:17:51;9.70;95.31
67759;SHT31;54562;47.620;18.786;2022-11-10T00:21:08;9.73;95.31
67759;SHT31;54562;47.620;18.786;2022-11-10T00:24:26;9.74;95.30
67759;SHT31;54562;47.620;18.786;2022-11-10T00:27:43;9.76;95.30
67759;SHT31;54562;47.620;18.786;2022-11-10T00:31:03;9.78;95.30
67759;SHT31;54562;47.620;18.786;2022-11-10T00:34:13;9.78;95.25
67759;SHT31;54562;47.620;18.786;2022-11-10T00:37:30;9.78;95.20
67759;SHT31;54562;47.620;18.786;2022-11-10T00:40:45;9.77;95.20
67759;SHT31;54562;47.620;18.786;2022-11-10T00:44:02;9.76;95.19
67759;SHT31;54562;47.620;18.786;2022-11-10T00:47:11;9.76;95.18
67759;SHT31;54562;47.620;18.786;2022-11-10T00:50:27;9.77;95.18
67759;SHT31;54562;47.620;18.786;2022-11-10T00:53:35;9.78;95.13
67759;SHT31;54562;47.620;18.786;2022-11-10T00:56:43;9.79;95.10
67759;SHT31;54562;47.620;18.786;2022-11-10T00:59:59;9.80;95.10
67759;SHT31;54562;47.620;18.786;2022-11-10T01:03:06;9.81;95.10
67759;SHT31;54562;47.620;18.786;2022-11-10T01:06:19;9.81;95.09
67759;SHT31;54562;47.620;18.786;2022-11-10T01:09:27;9.82;95.07
67759;SHT31;54562;47.620;18.786;2022-11-10T01:12:43;9.86;95.08
67759;SHT31;54562;47.620;18.786;2022-11-10T01:15:53;9.88;95.03
67759;SHT31;54562;47.620;18.786;2022-11-10T01:19:08;9.90;95.00
67759;SHT31;54562;47.620;18.786;2022-11-10T01:22:16;9.91;94.99
67759;SHT31;54562;47.620;18.786;2022-11-10T01:25:24;9.93;94.98
67759;SHT31;54562;47.620;18.786;2022-11-10T01:28:33;9.94;94.96
67759;SHT31;54562;47.620;18.786;2022-11-10T01:31:50;9.96;94.93
67759;SHT31;54562;47.620;18.786;2022-11-10T01:35:07;9.98;94.90
67759;SHT31;54562;47.620;18.786;2022-11-10T01:38:15;9.98;94.90
67759;SHT31;54562;47.620;18.786;2022-11-10T01:41:23;9.99;94.90
67759;SHT31;54562;47.620;18.786;2022-11-10T01:44:33;10.00;94.83
67759;SHT31;54562;47.620;18.786;2022-11-10T01:47:51;10.01;94.81
67759;SHT31;54562;47.620;18.786;2022-11-10T01:51:04;10.02;94.80
67759;SHT31;54562;47.620;18.786;2022-11-10T01:54:25;10.03;94.81
67759;SHT31;54562;47.620;18.786;2022-11-10T01:57:37;10.03;94.77
67759;SHT31;54562;47.620;18.786;2022-11-10T02:00:47;10.02;94.72
67759;SHT31;54562;47.620;18.786;2022-11-10T02:03:57;10.01;94.70
67759;SHT31;54562;47.620;18.786;2022-11-10T02:07:08;10.01;94.70
67759;SHT31;54562;47.620;18.786;2022-11-10T02:10:19;10.00;94.68
67759;SHT31;54562;47.620;18.786;2022-11-10T02:13:36;9.97;94.64
67759;SHT31;54562;47.620;18.786;2022-11-10T02:16:53;9.98;94.66
67759;SHT31;54562;47.620;18.786;2022-11-10T02:20:03;9.98;94.65
67759;SHT31;54562;47.620;18.786;2022-11-10T02:23:45;9.98;94.60
67759;SHT31;54562;47.620;18.786;2022-11-10T02:27:04;9.98;94.60
67759;SHT31;54562;47.620;18.786;2022-11-10T02:30:12;9.98;94.59
67759;SHT31;54562;47.620;18.786;2022-11-10T02:33:28;9.99;94.60
67759;SHT31;54562;47.620;18.786;2022-11-10T02:36:38;10.01;94.60
67759;SHT31;54562;47.620;18.786;2022-11-10T02:39:45;10.03;94.58
67759;SHT31;54562;47.620;18.786;2022-11-10T02:43:02;10.04;94.54
67759;SHT31;54562;47.620;18.786;2022-11-10T02:46:13;10.05;94.51
67759;SHT31;54562;47.620;18.786;2022-11-10T02:49:29;10.05;94.50
67759;SHT31;54562;47.620;18.786;2022-11-10T02:52:45;10.06;94.47
67759;SHT31;54562;47.620;18.786;2022-11-10T02:56:01;10.05;94.43
67759;SHT31;54562;47.620;18.786;2022-11-10T02:59:10;10.06;94.42
67759;SHT31;54562;47.620;18.786;2022-11-10T03:02:26;10.05;94.40
67759;SHT31;54562;47.620;18.786;2022-11-10T03:05:34;10.06;94.40
67759;SHT31;54562;47.620;18.786;2022-11-10T03:08:42;10.05;94.40
67759;SHT31;54562;47.620;18.786;2022-11-10T03:11:50;10.04;94.36
67759;SHT31;54562;47.620;18.786;2022-11-10T03:14:58;10.03;94.32
67759;SHT31;54562;47.620;18.786;2022-11-10T03:18:14;10.01;94.32
67759;SHT31;54562;47.620;18.786;2022-11-10T03:21:22;10.01;94.37
67759;SHT31;54562;47.620;18.786;2022-11-10T03:24:39;10.00;94.36
67759;SHT31;54562;47.620;18.786;2022-11-10T03:27:47;9.99;94.37
67759;SHT31;54562;47.620;18.786;2022-11-10T03:31:03;9.98;94.37
67759;SHT31;54562;47.620;18.786;2022-11-10T03:34:20;9.98;94.33
67759;SHT31;54562;47.620;18.786;2022-11-10T03:37:43;9.97;94.34
67759;SHT31;54562;47.620;18.786;2022-11-10T03:40:51;9.97;94.32
67759;SHT31;54562;47.620;18.786;2022-11-10T03:44:04;9.95;94.32
67759;SHT31;54562;47.620;18.786;2022-11-10T03:47:13;9.93;94.31
67759;SHT31;54562;47.620;18.786;2022-11-10T03:50:28;9.92;94.33
67759;SHT31;54562;47.620;18.786;2022-11-10T03:53:44;9.91;94.32
67759;SHT31;54562;47.620;18.786;2022-11-10T03:57:02;9.91;94.31
67759;SHT31;54562;47.620;18.786;2022-11-10T04:00:11;9.90;94.31
67759;SHT31;54562;47.620;18.786;2022-11-10T04:03:28;9.90;94.30
67759;SHT31;54562;47.620;18.786;2022-11-10T04:06:37;9.89;94.30
67759;SHT31;54562;47.620;18.786;2022-11-10T04:10:03;9.90;94.30
67759;SHT31;54562;47.620;18.786;2022-11-10T04:13:13;9.90;94.30
67759;SHT31;54562;47.620;18.786;2022-11-10T04:16:48;9.89;94.28
67759;SHT31;54562;47.620;18.786;2022-11-10T04:19:56;9.89;94.21
67759;SHT31;54562;47.620;18.786;2022-11-10T04:23:05;9.90;94.22
67759;SHT31;54562;47.620;18.786;2022-11-10T04:26:47;9.88;94.20
67759;SHT31;54562;47.620;18.786;2022-11-10T04:30:05;9.88;94.20
67759;SHT31;54562;47.620;18.786;2022-11-10T04:33:14;9.87;94.20
67759;SHT31;54562;47.620;18.786;2022-11-10T04:36:32;9.87;94.18
67759;SHT31;54562;47.620;18.786;2022-11-10T04:39:42;9.86;94.18
67759;SHT31;54562;47.620;18.786;2022-11-10T04:42:50;9.85;94.13
67759;SHT31;54562;47.620;18.786;2022-11-10T04:46:19;9.85;94.11
67759;SHT31;54562;47.620;18.786;2022-11-10T04:49:38;9.82;94.10
67759;SHT31;54562;47.620;18.786;2022-11-10T04:52:54;9.82;94.11
67759;SHT31;54562;47.620;18.786;2022-11-10T04:56:02;9.83;94.13
67759;SHT31;54562;47.620;18.786;2022-11-10T04:59:11;9.83;94.14
67759;SHT31;54562;47.620;18.786;2022-11-10T05:02:19;9.83;94.16
67759;SHT31;54562;47.620;18.786;2022-11-10T05:05:41;9.83;94.16
67759;SHT31;54562;47.620;18.786;2022-11-10T05:08:57;9.84;94.16
67759;SHT31;54562;47.620;18.786;2022-11-10T05:12:05;9.86;94.18
67759;SHT31;54562;47.620;18.786;2022-11-10T05:15:22;9.85;94.13
67759;SHT31;54562;47.620;18.786;2022-11-10T05:18:31;9.85;94.13
67759;SHT31;54562;47.620;18.786;2022-11-10T05:21:39;9.86;94.12
67759;SHT31;54562;47.620;18.786;2022-11-10T05:24:56;9.86;94.10
67759;SHT31;54562;47.620;18.786;2022-11-10T05:28:05;9.85;94.10
67759;SHT31;54562;47.620;18.786;2022-11-10T05:31:15;9.85;94.10
67759;SHT31;54562;47.620;18.786;2022-11-10T05:34:23;9.84;94.10
67759;SHT31;54562;47.620;18.786;2022-11-10T05:37:39;9.84;94.10
67759;SHT31;54562;47.620;18.786;2022-11-10T05:40:56;9.83;94.10
67759;SHT31;54562;47.620;18.786;2022-11-10T05:44:04;9.83;94.10
67759;SHT31;54562;47.620;18.786;2022-11-10T05:47:13;9.81;94.10
67759;SHT31;54562;47.620;18.786;2022-11-10T05:50:21;9.81;94.10
67759;SHT31;54562;47.620;18.786;2022-11-10T05:53:38;9.81;94.10
67759;SHT31;54562;47.620;18.786;2022-11-10T05:56:47;9.81;94.10
67759;SHT31;54562;47.620;18.786;2022-11-10T05:59:55;9.80;94.10
67759;SHT31;54562;47.620;18.786;2022-11-10T06:03:13;9.79;94.11
67759;SHT31;54562;47.620;18.786;2022-11-10T06:06:24;9.78;94.11
67759;SHT31;54562;47.620;18.786;2022-11-10T06:09:32;9.78;94.13
67759;SHT31;54562;47.620;18.786;2022-11-10T06:12:41;9.78;94.14
67759;SHT31;54562;47.620;18.786;2022-11-10T06:15:49;9.78;94.18
67759;SHT31;54562;47.620;18.786;2022-11-10T06:19:06;9.78;94.17
67759;SHT31;54562;47.620;18.786;2022-11-10T06:22:14;9.79;94.19
67759;SHT31;54562;47.620;18.786;2022-11-10T06:25:31;9.80;94.20
67759;SHT31;54562;47.620;18.786;2022-11-10T06:28:41;9.81;94.20
67759;SHT31;54562;47.620;18.786;2022-11-10T06:31:49;9.81;94.20
67759;SHT31;54562;47.620;18.786;2022-11-10T06:35:10;9.82;94.20
67759;SHT31;54562;47.620;18.786;2022-11-10T06:38:27;9.84;94.20
67759;SHT31;54562;47.620;18.786;2022-11-10T06:41:43;9.84;94.20
67759;SHT31;54562;47.620;18.786;2022-11-10T06:44:52;9.85;94.20
67759;SHT31;54562;47.620;18.786;2022-11-10T06:48:08;9.87;94.18
67759;SHT31;54562;47.620;18.786;2022-11-10T06:51:19;9.86;94.17
67759;SHT31;54562;47.620;18.786;2022-11-10T06:54:35;9.87;94.11
67759;SHT31;54562;47.620;18.786;2022-11-10T06:57:51;9.89;94.13
67759;SHT31;54562;47.620;18.786;2022-11-10T07:01:00;9.90;94.10
67759;SHT31;54562;47.620;18.786;2022-11-10T07:04:17;9.91;94.11
67759;SHT31;54562;47.620;18.786;2022-11-10T07:07:33;9.95;94.10
67759;SHT31;54562;47.620;18.786;2022-11-10T07:10:42;9.97;94.10
67759;SHT31;54562;47.620;18.786;2022-11-10T07:14:05;10.00;94.07
67759;SHT31;54562;47.620;18.786;2022-11-10T07:17:13;10.01;94.03
67759;SHT31;54562;47.620;18.786;2022-11-10T07:20:30;10.03;94.00
67759;SHT31;54562;47.620;18.786;2022-11-10T07:23:47;10.04;93.99
67759;SHT31;54562;47.620;18.786;2022-11-10T07:26:56;10.05;93.99
67759;SHT31;54562;47.620;18.786;2022-11-10T07:30:12;10.08;93.97
67759;SHT31;54562;47.620;18.786;2022-11-10T07:33:21;10.09;93.95
67759;SHT31;54562;47.620;18.786;2022-11-10T07:36:37;10.12;93.95
67759;SHT31;54562;47.620;18.786;2022-11-10T07:39:56;10.15;93.91
67759;SHT31;54562;47.620;18.786;2022-11-10T07:43:13;10.17;93.90
67759;SHT31;54562;47.620;18.786;2022-11-10T07:46:22;10.19;93.90
67759;SHT31;54562;47.620;18.786;2022-11-10T07:49:39;10.22;93.89
67759;SHT31;54562;47.620;18.786;2022-11-10T07:52:47;10.27;93.88
67759;SHT31;54562;47.620;18.786;2022-11-10T07:56:06;10.31;93.82
67759;SHT31;54562;47.620;18.786;2022-11-10T07:59:14;10.36;93.80
67759;SHT31;54562;47.620;18.786;2022-11-10T08:02:30;10.40;93.76
67759;SHT31;54562;47.620;18.786;2022-11-10T08:05:38;10.44;93.70
67759;SHT31;54562;47.620;18.786;2022-11-10T08:08:55;10.46;93.63
67759;SHT31;54562;47.620;18.786;2022-11-10T08:12:03;10.51;93.59
67759;SHT31;54562;47.620;18.786;2022-11-10T08:15:13;10.57;93.57
67759;SHT31;54562;47.620;18.786;2022-11-10T08:18:22;10.62;93.55
67759;SHT31;54562;47.620;18.786;2022-11-10T08:21:45;10.68;93.47
67759;SHT31;54562;47.620;18.786;2022-11-10T08:24:54;10.73;93.40
67759;SHT31;54562;47.620;18.786;2022-11-10T08:28:13;10.76;93.32
67759;SHT31;54562;47.620;18.786;2022-11-10T08:31:32;10.81;93.27
67759;SHT31;54562;47.620;18.786;2022-11-10T08:34:48;10.85;93.18
67759;SHT31;54562;47.620;18.786;2022-11-10T08:37:57;10.86;93.11
67759;SHT31;54562;47.620;18.786;2022-11-10T08:41:20;10.85;93.03
67759;SHT31;54562;47.620;18.786;2022-11-10T08:44:36;10.84;93.00
67759;SHT31;54562;47.620;18.786;2022-11-10T08:47:54;10.86;92.97
67759;SHT31;54562;47.620;18.786;2022-11-10T08:51:04;10.89;92.91
67759;SHT31;54562;47.620;18.786;2022-11-10T08:54:20;10.94;92.86
67759;SHT31;54562;47.620;18.786;2022-11-10T08:57:36;10.99;92.78
67759;SHT31;54562;47.620;18.786;2022-11-10T09:00:44;10.99;92.65
67759;SHT31;54562;47.620;18.786;2022-11-10T09:04:01;10.99;92.53
67759;SHT31;54562;47.620;18.786;2022-11-10T09:07:09;10.99;92.35
67759;SHT31;54562;47.620;18.786;2022-11-10T09:10:26;11.00;92.26
67759;SHT31;54562;47.620;18.786;2022-11-10T09:13:42;10.98;92.13
67759;SHT31;54562;47.620;18.786;2022-11-10T09:16:51;10.97;91.96
67759;SHT31;54562;47.620;18.786;2022-11-10T09:19:58;10.95;91.78
67759;SHT31;54562;47.620;18.786;2022-11-10T09:23:16;10.95;91.60
67759;SHT31;54562;47.620;18.786;2022-11-10T09:26:35;10.97;91.57
67759;SHT31;54562;47.620;18.786;2022-11-10T09:29:48;11.03;91.60
67759;SHT31;54562;47.620;18.786;2022-11-10T09:32:56;11.10;91.60
67759;SHT31;54562;47.620;18.786;2022-11-10T09:36:13;11.20;91.59
67759;SHT31;54562;47.620;18.786;2022-11-10T09:39:22;11.29;91.54
67759;SHT31;54562;47.620;18.786;2022-11-10T09:42:39;11.35;91.40
67759;SHT31;54562;47.620;18.786;2022-11-10T09:45:58;11.41;91.40
67759;SHT31;54562;47.620;18.786;2022-11-10T09:49:20;11.45;91.38
67759;SHT31;54562;47.620;18.786;2022-11-10T09:52:47;11.50;91.28
67759;SHT31;54562;47.620;18.786;2022-11-10T09:56:07;11.49;91.18
67759;SHT31;54562;47.620;18.786;2022-11-10T09:59:24;11.48;91.04
67759;SHT31;54562;47.620;18.786;2022-11-10T10:02:43;11.47;91.00
67759;SHT31;54562;47.620;18.786;2022-11-10T10:06:01;11.46;90.92
67759;SHT31;54562;47.620;18.786;2022-11-10T10:09:32;11.49;90.93
67759;SHT31;54562;47.620;18.786;2022-11-10T10:12:51;11.53;90.97
67759;SHT31;54562;47.620;18.786;2022-11-10T10:16:38;11.57;90.97
67759;SHT31;54562;47.620;18.786;2022-11-10T10:19:55;11.62;90.86
67759;SHT31;54562;47.620;18.786;2022-11-10T10:23:31;11.66;90.80
67759;SHT31;54562;47.620;18.786;2022-11-10T10:27:09;11.73;90.79
67759;SHT31;54562;47.620;18.786;2022-11-10T10:30:35;11.73;90.56
67759;SHT31;54562;47.620;18.786;2022-11-10T10:33:46;11.74;90.39
67759;SHT31;54562;47.620;18.786;2022-11-10T10:37:13;11.73;90.31
67759;SHT31;54562;47.620;18.786;2022-11-10T10:40:29;11.70;90.17
67759;SHT31;54562;47.620;18.786;2022-11-10T10:43:46;11.69;90.17
67759;SHT31;54562;47.620;18.786;2022-11-10T10:46:58;11.65;90.11
67759;SHT31;54562;47.620;18.786;2022-11-10T10:50:30;11.60;90.05
67759;SHT31;54562;47.620;18.786;2022-11-10T10:53:46;11.56;89.99
67759;SHT31;54562;47.620;18.786;2022-11-10T10:57:04;11.52;89.97
67759;SHT31;54562;47.620;18.786;2022-11-10T11:00:30;11.48;89.96
67759;SHT31;54562;47.620;18.786;2022-11-10T11:03:48;11.44;89.93
67759;SHT31;54562;47.620;18.786;2022-11-10T11:06:58;11.44;89.97
67759;SHT31;54562;47.620;18.786;2022-11-10T11:10:13;11.44;89.97
67759;SHT31;54562;47.620;18.786;2022-11-10T11:13:34;11.41;89.78
67759;SHT31;54562;47.620;18.786;2022-11-10T11:16:54;11.38;89.65
67759;SHT31;54562;47.620;18.786;2022-11-10T11:20:14;11.36;89.72
67759;SHT31;54562;47.620;18.786;2022-11-10T11:23:32;11.34;89.72
67759;SHT31;54562;47.620;18.786;2022-11-10T11:27:19;11.32;89.68
67759;SHT31;54562;47.620;18.786;2022-11-10T11:30:49;11.32;89.70
67759;SHT31;54562;47.620;18.786;2022-11-10T11:34:18;11.31;89.68
67759;SHT31;54562;47.620;18.786;2022-11-10T11:37:37;11.29;89.62
67759;SHT31;54562;47.620;18.786;2022-11-10T11:41:08;11.27;89.54
67759;SHT31;54562;47.620;18.786;2022-11-10T11:44:36;11.25;89.52
67759;SHT31;54562;47.620;18.786;2022-11-10T11:55:25;11.24;89.51
67759;SHT31;54562;47.620;18.786;2022-11-10T11:59:08;11.26;89.50
67759;SHT31;54562;47.620;18.786;2022-11-10T12:02:49;11.26;89.41
67759;SHT31;54562;47.620;18.786;2022-11-10T12:06:31;11.24;89.35
67759;SHT31;54562;47.620;18.786;2022-11-10T12:13:42;11.23;89.23
67759;SHT31;54562;47.620;18.786;2022-11-10T12:17:14;11.22;89.19
67759;SHT31;54562;47.620;18.786;2022-11-10T12:20:34;11.18;89.17
67759;SHT31;54562;47.620;18.786;2022-11-10T12:24:14;11.16;89.16
67759;SHT31;54562;47.620;18.786;2022-11-10T12:27:43;11.16;89.16
67759;SHT31;54562;47.620;18.786;2022-11-10T12:30:59;11.16;89.13
67759;SHT31;54562;47.620;18.786;2022-11-10T12:34:13;11.17;89.06
67759;SHT31;54562;47.620;18.786;2022-11-10T12:37:34;11.19;89.09
67759;SHT31;54562;47.620;18.786;2022-11-10T12:40:48;11.21;89.09
67759;SHT31;54562;47.620;18.786;2022-11-10T12:44:20;11.23;89.12
67759;SHT31;54562;47.620;18.786;2022-11-10T12:47:38;11.26;89.07
67759;SHT31;54562;47.620;18.786;2022-11-10T12:51:07;11.28;89.09
67759;SHT31;54562;47.620;18.786;2022-11-10T12:54:24;11.30;89.15
67759;SHT31;54562;47.620;18.786;2022-11-10T12:57:51;11.30;89.18
67759;SHT31;54562;47.620;18.786;2022-11-10T13:00:59;11.30;89.16
67759;SHT31;54562;47.620;18.786;2022-11-10T13:04:24;11.30;89.16
67759;SHT31;54562;47.620;18.786;2022-11-10T13:07:32;11.28;89.11
67759;SHT31;54562;47.620;18.786;2022-11-10T13:11:00;11.27;89.10
67759;SHT31;54562;47.620;18.786;2022-11-10T13:14:24;11.25;89.12
67759;SHT31;54562;47.620;18.786;2022-11-10T13:17:53;11.26;89.13
67759;SHT31;54562;47.620;18.786;2022-11-10T13:21:01;11.23;89.09
67759;SHT31;54562;47.620;18.786;2022-11-10T13:24:19;11.23;89.09
67759;SHT31;54562;47.620;18.786;2022-11-10T13:27:51;11.22;89.09
67759;SHT31;54562;47.620;18.786;2022-11-10T13:31:07;11.22;89.09
67759;SHT31;54562;47.620;18.786;2022-11-10T13:34:30;11.21;89.12
67759;SHT31;54562;47.620;18.786;2022-11-10T13:38:01;11.20;89.13
67759;SHT31;54562;47.620;18.786;2022-11-10T13:41:23;11.21;89.17
67759;SHT31;54562;47.620;18.786;2022-11-10T13:44:43;11.22;89.20
67759;SHT31;54562;47.620;18.786;2022-11-10T13:47:53;11.22;89.19
67759;SHT31;54562;47.620;18.786;2022-11-10T13:51:17;11.20;89.18
67759;SHT31;54562;47.620;18.786;2022-11-10T13:58:30;11.16;89.26
67759;SHT31;54562;47.620;18.786;2022-11-10T14:01:42;11.12;89.30
67759;SHT31;54562;47.620;18.786;2022-11-10T14:05:08;11.12;89.30
67759;SHT31;54562;47.620;18.786;2022-11-10T14:09:19;11.11;89.40
67759;SHT31;54562;47.620;18.786;2022-11-10T14:12:54;11.10;89.40
67759;SHT31;54562;47.620;18.786;2022-11-10T14:16:13;11.10;89.40
67759;SHT31;54562;47.620;18.786;2022-11-10T14:19:43;11.10;89.42
67759;SHT31;54562;47.620;18.786;2022-11-10T14:22:51;11.09;89.42
67759;SHT31;54562;47.620;18.786;2022-11-10T14:26:18;11.08;89.49
67759;SHT31;54562;47.620;18.786;2022-11-10T14:29:35;11.07;89.50
67759;SHT31;54562;47.620;18.786;2022-11-10T14:32:46;11.06;89.50
67759;SHT31;54562;47.620;18.786;2022-11-10T14:36:04;11.05;89.52
67759;SHT31;54562;47.620;18.786;2022-11-10T14:39:25;11.03;89.50
67759;SHT31;54562;47.620;18.786;2022-11-10T14:42:37;11.02;89.50
67759;SHT31;54562;47.620;18.786;2022-11-10T14:46:05;11.01;89.50
67759;SHT31;54562;47.620;18.786;2022-11-10T14:49:21;10.99;89.50
67759;SHT31;54562;47.620;18.786;2022-11-10T14:52:31;10.97;89.51
67759;SHT31;54562;47.620;18.786;2022-11-10T14:55:43;10.95;89.53
67759;SHT31;54562;47.620;18.786;2022-11-10T14:59:02;10.92;89.54
67759;SHT31;54562;47.620;18.786;2022-11-10T15:02:15;10.90;89.57
67759;SHT31;54562;47.620;18.786;2022-11-10T15:05:41;10.87;89.60
67759;SHT31;54562;47.620;18.786;2022-11-10T15:08:50;10.86;89.61
67759;SHT31;54562;47.620;18.786;2022-11-10T15:12:17;10.84;89.66
67759;SHT31;54562;47.620;18.786;2022-11-10T15:15:31;10.82;89.66
67759;SHT31;54562;47.620;18.786;2022-11-10T15:19:17;10.80;89.67
67759;SHT31;54562;47.620;18.786;2022-11-10T15:22:32;10.78;89.68
67759;SHT31;54562;47.620;18.786;2022-11-10T15:25:50;10.75;89.70
67759;SHT31;54562;47.620;18.786;2022-11-10T15:28:58;10.72;89.70
67759;SHT31;54562;47.620;18.786;2022-11-10T15:32:16;10.70;89.71
67759;SHT31;54562;47.620;18.786;2022-11-10T15:35:28;10.68;89.78
67759;SHT31;54562;47.620;18.786;2022-11-10T15:38:54;10.66;89.80
67759;SHT31;54562;47.620;18.786;2022-11-10T15:42:12;10.64;89.80
67759;SHT31;54562;47.620;18.786;2022-11-10T15:45:32;10.62;89.80
67759;SHT31;54562;47.620;18.786;2022-11-10T15:48:41;10.60;89.82
67759;SHT31;54562;47.620;18.786;2022-11-10T15:52:01;10.58;89.90
67759;SHT31;54562;47.620;18.786;2022-11-10T15:55:19;10.56;89.92
67759;SHT31;54562;47.620;18.786;2022-11-10T15:58:45;10.55;89.98
67759;SHT31;54562;47.620;18.786;2022-11-10T16:02:07;10.53;90.03
67759;SHT31;54562;47.620;18.786;2022-11-10T16:05:45;10.53;90.06
67759;SHT31;54562;47.620;18.786;2022-11-10T16:08:53;10.52;90.07
67759;SHT31;54562;47.620;18.786;2022-11-10T16:12:14;10.50;90.10
67759;SHT31;54562;47.620;18.786;2022-11-10T16:15:25;10.47;90.12
67759;SHT31;54562;47.620;18.786;2022-11-10T16:18:42;10.47;90.15
67759;SHT31;54562;47.620;18.786;2022-11-10T16:21:50;10.45;90.20
67759;SHT31;54562;47.620;18.786;2022-11-10T16:24:58;10.45;90.20
67759;SHT31;54562;47.620;18.786;2022-11-10T16:28:06;10.43;90.22
67759;SHT31;54562;47.620;18.786;2022-11-10T16:31:25;10.44;90.27
67759;SHT31;54562;47.620;18.786;2022-11-10T16:34:35;10.43;90.29
67759;SHT31;54562;47.620;18.786;2022-11-10T16:37:44;10.43;90.30
67759;SHT31;54562;47.620;18.786;2022-11-10T16:40:54;10.42;90.30
67759;SHT31;54562;47.620;18.786;2022-11-10T16:44:07;10.40;90.30
67759;SHT31;54562;47.620;18.786;2022-11-10T16:47:18;10.38;90.32
67759;SHT31;54562;47.620;18.786;2022-11-10T16:50:29;10.36;90.35
67759;SHT31;54562;47.620;18.786;2022-11-10T16:57:24;10.29;90.39
67759;SHT31;54562;47.620;18.786;2022-11-10T17:00:38;10.25;90.40
67759;SHT31;54562;47.620;18.786;2022-11-10T17:03:55;10.22;90.36
67759;SHT31;54562;47.620;18.786;2022-11-10T17:07:09;10.17;90.30
67759;SHT31;54562;47.620;18.786;2022-11-10T17:10:22;10.13;90.30
67759;SHT31;54562;47.620;18.786;2022-11-10T17:13:30;10.09;90.30
67759;SHT31;54562;47.620;18.786;2022-11-10T17:16:39;10.07;90.30
67759;SHT31;54562;47.620;18.786;2022-11-10T17:19:49;10.04;90.30
67759;SHT31;54562;47.620;18.786;2022-11-10T17:22:58;10.00;90.30
67759;SHT31;54562;47.620;18.786;2022-11-10T17:26:08;9.97;90.30
67759;SHT31;54562;47.620;18.786;2022-11-10T17:29:17;9.92;90.30
67759;SHT31;54562;47.620;18.786;2022-11-10T17:32:26;9.88;90.32
67759;SHT31;54562;47.620;18.786;2022-11-10T17:35:55;9.85;90.34
67759;SHT31;54562;47.620;18.786;2022-11-10T17:39:04;9.82;90.34
67759;SHT31;54562;47.620;18.786;2022-11-10T17:42:16;9.77;90.31
67759;SHT31;54562;47.620;18.786;2022-11-10T17:45:26;9.72;90.30
67759;SHT31;54562;47.620;18.786;2022-11-10T17:48:34;9.68;90.30
67759;SHT31;54562;47.620;18.786;2022-11-10T17:51:42;9.63;90.30
67759;SHT31;54562;47.620;18.786;2022-11-10T17:54:50;9.60;90.33
67759;SHT31;54562;47.620;18.786;2022-11-10T17:58:00;9.55;90.37
67759;SHT31;54562;47.620;18.786;2022-11-10T18:01:12;9.51;90.39
67759;SHT31;54562;47.620;18.786;2022-11-10T18:04:24;9.47;90.38
67759;SHT31;54562;47.620;18.786;2022-11-10T18:07:41;9.44;90.38
67759;SHT31;54562;47.620;18.786;2022-11-10T18:10:53;9.40;90.31
67759;SHT31;54562;47.620;18.786;2022-11-10T18:14:06;9.38;90.31
67759;SHT31;54562;47.620;18.786;2022-11-10T18:17:15;9.35;90.20
67759;SHT31;54562;47.620;18.786;2022-11-10T18:20:27;9.32;90.13
67759;SHT31;54562;47.620;18.786;2022-11-10T18:23:35;9.28;90.16
67759;SHT31;54562;47.620;18.786;2022-11-10T18:26:54;9.24;90.16
67759;SHT31;54562;47.620;18.786;2022-11-10T18:30:02;9.18;90.04
67759;SHT31;54562;47.620;18.786;2022-11-10T18:33:11;9.06;89.98
67759;SHT31;54562;47.620;18.786;2022-11-10T18:36:20;8.94;90.04
67759;SHT31;54562;47.620;18.786;2022-11-10T18:39:28;8.83;90.11
67759;SHT31;54562;47.620;18.786;2022-11-10T18:42:37;8.72;90.23
67759;SHT31;54562;47.620;18.786;2022-11-10T18:45:55;8.63;90.34
67759;SHT31;54562;47.620;18.786;2022-11-10T18:49:03;8.57;90.43
67759;SHT31;54562;47.620;18.786;2022-11-10T18:52:12;8.51;90.51
67759;SHT31;54562;47.620;18.786;2022-11-10T18:55:20;8.47;90.60
67759;SHT31;54562;47.620;18.786;2022-11-10T18:58:37;8.44;90.62
67759;SHT31;54562;47.620;18.786;2022-11-10T19:01:45;8.40;90.64
67759;SHT31;54562;47.620;18.786;2022-11-10T19:04:54;8.38;90.67
67759;SHT31;54562;47.620;18.786;2022-11-10T19:08:06;8.35;90.64
67759;SHT31;54562;47.620;18.786;2022-11-10T19:11:14;8.35;90.65
67759;SHT31;54562;47.620;18.786;2022-11-10T19:14:23;8.33;90.63
67759;SHT31;54562;47.620;18.786;2022-11-10T19:17:39;8.28;90.60
67759;SHT31;54562;47.620;18.786;2022-11-10T19:20:46;8.22;90.60
67759;SHT31;54562;47.620;18.786;2022-11-10T19:24:03;8.19;90.67
67759;SHT31;54562;47.620;18.786;2022-11-10T19:27:12;8.16;90.63
67759;SHT31;54562;47.620;18.786;2022-11-10T19:30:21;8.13;90.46
67759;SHT31;54562;47.620;18.786;2022-11-10T19:33:30;8.08;90.47
67759;SHT31;54562;47.620;18.786;2022-11-10T19:36:49;8.06;90.51
67759;SHT31;54562;47.620;18.786;2022-11-10T19:39:57;8.05;90.52
67759;SHT31;54562;47.620;18.786;2022-11-10T19:43:14;8.03;90.60
67759;SHT31;54562;47.620;18.786;2022-11-10T19:49:45;8.03;90.81
67759;SHT31;54562;47.620;18.786;2022-11-10T19:52:53;8.05;90.86
67759;SHT31;54562;47.620;18.786;2022-11-10T19:56:11;8.03;90.80
67759;SHT31;54562;47.620;18.786;2022-11-10T19:59:22;8.06;90.90
67759;SHT31;54562;47.620;18.786;2022-11-10T20:02:30;8.09;90.77
67759;SHT31;54562;47.620;18.786;2022-11-10T20:05:46;8.06;90.52
67759;SHT31;54562;47.620;18.786;2022-11-10T20:09:11;8.05;90.55
67759;SHT31;54562;47.620;18.786;2022-11-10T20:12:19;8.05;90.62
67759;SHT31;54562;47.620;18.786;2022-11-10T20:15:28;8.06;90.51
67759;SHT31;54562;47.620;18.786;2022-11-10T20:18:36;8.02;90.40
67759;SHT31;54562;47.620;18.786;2022-11-10T20:21:54;8.01;90.53
67759;SHT31;54562;47.620;18.786;2022-11-10T20:25:03;8.02;90.51
67759;SHT31;54562;47.620;18.786;2022-11-10T20:28:20;7.97;90.33
67759;SHT31;54562;47.620;18.786;2022-11-10T20:31:29;7.92;90.33
67759;SHT31;54562;47.620;18.786;2022-11-10T20:34:47;7.90;90.38
67759;SHT31;54562;47.620;18.786;2022-11-10T20:37:55;7.85;90.30
67759;SHT31;54562;47.620;18.786;2022-11-10T20:41:12;7.84;90.34
67759;SHT31;54562;47.620;18.786;2022-11-10T20:44:22;7.78;90.32
67759;SHT31;54562;47.620;18.786;2022-11-10T20:47:39;7.76;90.39